sensor_id;sensor_type;location;lat;lon;timestamp;P1;durP1;ratioP1;P2;durP2;ratioP2
81398;SDS011;70853;50.074;10.224;2024-02-28T00:00:03;22.60;;;16.33;;
81398;SDS011;70853;50.074;10.224;2024-02-28T00:02:30;22.45;;;17.13;;
81398;SDS011;70853;50.074;10.224;2024-02-28T00:04:56;24.15;;;21.60;;
81398;SDS011;70853;50.074;10.224;2024-02-28T00:07:24;19.90;;;13.65;;
81398;SDS011;70853;50.074;10.224;2024-02-28T00:09:49;20.63;;;16.48;;
81398;SDS011;70853;50.074;10.224;2024-02-28T00:12:15;21.25;;;15.80;;
81398;SDS011;70853;50.074;10.224;2024-02-28T00:14:40;24.95;;;18.92;;
81398;SDS011;70853;50.074;10.224;2024-02-28T00:17:06;20.77;;;16.17;;
81398;SDS011;70853;50.074;10.224;2024-02-28T00:19:31;21.63;;;14.05;;
81398;SDS011;70853;50.074;10.224;2024-02-28T00:21:57;23.52;;;17.17;;
81398;SDS011;70853;50.074;10.224;2024-02-28T00:24:25;18.90;;;11.32;;
81398;SDS011;70853;50.074;10.224;2024-02-28T00:26:50;23.42;;;19.58;;
81398;SDS011;70853;50.074;10.224;2024-02-28T00:29:15;21.70;;;15.95;;
81398;SDS011;70853;50.074;10.224;2024-02-28T00:31:41;21.77;;;14.45;;
81398;SDS011;70853;50.074;10.224;2024-02-28T00:34:06;22.40;;;16.55;;
81398;SDS011;70853;50.074;10.224;2024-02-28T00:36:34;23.98;;;15.43;;
81398;SDS011;70853;50.074;10.224;2024-02-28T00:38:59;20.00;;;12.95;;
81398;SDS011;70853;50.074;10.224;2024-02-28T00:41:24;25.52;;;19.60;;
81398;SDS011;70853;50.074;10.224;2024-02-28T00:43:50;18.65;;;12.35;;
81398;SDS011;70853;50.074;10.224;2024-02-28T00:46:15;23.98;;;20.20;;
81398;SDS011;70853;50.074;10.224;2024-02-28T00:48:41;21.23;;;13.55;;
81398;SDS011;70853;50.074;10.224;2024-02-28T00:51:06;22.20;;;19.88;;
81398;SDS011;70853;50.074;10.224;2024-02-28T00:53:33;19.70;;;16.35;;
81398;SDS011;70853;50.074;10.224;2024-02-28T00:55:59;18.80;;;15.10;;
81398;SDS011;70853;50.074;10.224;2024-02-28T00:58:24;20.55;;;11.55;;
81398;SDS011;70853;50.074;10.224;2024-02-28T01:00:53;19.85;;;16.77;;
81398;SDS011;70853;50.074;10.224;2024-02-28T01:03:18;19.05;;;14.05;;
81398;SDS011;70853;50.074;10.224;2024-02-28T01:05:44;24.88;;;21.35;;
81398;SDS011;70853;50.074;10.224;2024-02-28T01:08:09;17.30;;;13.82;;
81398;SDS011;70853;50.074;10.224;2024-02-28T01:10:34;18.35;;;15.77;;
81398;SDS011;70853;50.074;10.224;2024-02-28T01:13:00;17.55;;;12.90;;
81398;SDS011;70853;50.074;10.224;2024-02-28T01:15:25;17.17;;;13.57;;
81398;SDS011;70853;50.074;10.224;2024-02-28T01:17:51;17.60;;;14.63;;
81398;SDS011;70853;50.074;10.224;2024-02-28T01:20:16;20.27;;;17.60;;
81398;SDS011;70853;50.074;10.224;2024-02-28T01:22:42;22.42;;;12.90;;
81398;SDS011;70853;50.074;10.224;2024-02-28T01:25:08;15.25;;;9.98;;
81398;SDS011;70853;50.074;10.224;2024-02-28T01:27:33;21.75;;;15.45;;
81398;SDS011;70853;50.074;10.224;2024-02-28T01:30:00;16.25;;;11.63;;
81398;SDS011;70853;50.074;10.224;2024-02-28T01:32:26;18.20;;;10.55;;
81398;SDS011;70853;50.074;10.224;2024-02-28T01:34:51;18.13;;;12.07;;
81398;SDS011;70853;50.074;10.224;2024-02-28T01:37:17;16.00;;;11.25;;
81398;SDS011;70853;50.074;10.224;2024-02-28T01:39:42;21.92;;;17.52;;
81398;SDS011;70853;50.074;10.224;2024-02-28T01:42:08;15.90;;;12.32;;
81398;SDS011;70853;50.074;10.224;2024-02-28T01:44:38;18.60;;;15.00;;
81398;SDS011;70853;50.074;10.224;2024-02-28T01:47:09;17.73;;;11.75;;
81398;SDS011;70853;50.074;10.224;2024-02-28T01:49:34;18.45;;;14.85;;
81398;SDS011;70853;50.074;10.224;2024-02-28T01:52:00;16.25;;;14.18;;
81398;SDS011;70853;50.074;10.224;2024-02-28T01:54:26;20.52;;;18.17;;
81398;SDS011;70853;50.074;10.224;2024-02-28T01:56:52;15.40;;;11.35;;
81398;SDS011;70853;50.074;10.224;2024-02-28T01:59:19;21.08;;;18.95;;
81398;SDS011;70853;50.074;10.224;2024-02-28T02:01:45;17.45;;;14.07;;
81398;SDS011;70853;50.074;10.224;2024-02-28T02:04:11;16.48;;;14.43;;
81398;SDS011;70853;50.074;10.224;2024-02-28T02:06:37;19.08;;;15.80;;
81398;SDS011;70853;50.074;10.224;2024-02-28T02:09:07;24.42;;;22.02;;
81398;SDS011;70853;50.074;10.224;2024-02-28T02:11:32;20.42;;;17.70;;
81398;SDS011;70853;50.074;10.224;2024-02-28T02:13:58;18.52;;;15.30;;
81398;SDS011;70853;50.074;10.224;2024-02-28T02:16:24;17.13;;;15.27;;
81398;SDS011;70853;50.074;10.224;2024-02-28T02:21:18;18.30;;;14.50;;
81398;SDS011;70853;50.074;10.224;2024-02-28T02:23:47;17.13;;;14.38;;
81398;SDS011;70853;50.074;10.224;2024-02-28T02:26:13;16.90;;;11.50;;
81398;SDS011;70853;50.074;10.224;2024-02-28T02:28:38;16.05;;;12.63;;
81398;SDS011;70853;50.074;10.224;2024-02-28T02:31:04;16.27;;;10.88;;
81398;SDS011;70853;50.074;10.224;2024-02-28T02:33:29;18.85;;;13.02;;
81398;SDS011;70853;50.074;10.224;2024-02-28T02:35:55;16.90;;;11.95;;
81398;SDS011;70853;50.074;10.224;2024-02-28T02:38:20;18.77;;;14.48;;
81398;SDS011;70853;50.074;10.224;2024-02-28T02:40:49;12.63;;;10.57;;
81398;SDS011;70853;50.074;10.224;2024-02-28T02:43:18;17.88;;;12.68;;
81398;SDS011;70853;50.074;10.224;2024-02-28T02:45:43;16.00;;;12.43;;
81398;SDS011;70853;50.074;10.224;2024-02-28T02:48:09;16.00;;;10.43;;
81398;SDS011;70853;50.074;10.224;2024-02-28T02:50:35;13.10;;;9.77;;
81398;SDS011;70853;50.074;10.224;2024-02-28T02:53:01;14.35;;;11.60;;
81398;SDS011;70853;50.074;10.224;2024-02-28T02:55:27;13.35;;;10.70;;
81398;SDS011;70853;50.074;10.224;2024-02-28T02:57:52;14.25;;;11.20;;
81398;SDS011;70853;50.074;10.224;2024-02-28T03:00:18;15.85;;;13.75;;
81398;SDS011;70853;50.074;10.224;2024-02-28T03:02:43;14.77;;;9.90;;
81398;SDS011;70853;50.074;10.224;2024-02-28T03:05:09;15.40;;;12.43;;
81398;SDS011;70853;50.074;10.224;2024-02-28T03:07:34;14.90;;;10.73;;
81398;SDS011;70853;50.074;10.224;2024-02-28T03:10:00;13.65;;;12.25;;
81398;SDS011;70853;50.074;10.224;2024-02-28T03:12:25;16.50;;;13.23;;
81398;SDS011;70853;50.074;10.224;2024-02-28T03:14:51;16.05;;;13.80;;
81398;SDS011;70853;50.074;10.224;2024-02-28T03:17:16;15.10;;;11.45;;
81398;SDS011;70853;50.074;10.224;2024-02-28T03:19:42;13.20;;;11.23;;
81398;SDS011;70853;50.074;10.224;2024-02-28T03:22:07;15.02;;;13.52;;
81398;SDS011;70853;50.074;10.224;2024-02-28T03:24:33;14.10;;;12.52;;
81398;SDS011;70853;50.074;10.224;2024-02-28T03:27:02;12.18;;;8.88;;
81398;SDS011;70853;50.074;10.224;2024-02-28T03:29:28;14.55;;;12.25;;
81398;SDS011;70853;50.074;10.224;2024-02-28T03:31:54;15.95;;;14.25;;
81398;SDS011;70853;50.074;10.224;2024-02-28T03:34:19;13.55;;;11.75;;
81398;SDS011;70853;50.074;10.224;2024-02-28T03:36:45;16.10;;;14.43;;
81398;SDS011;70853;50.074;10.224;2024-02-28T03:39:11;17.60;;;15.63;;
81398;SDS011;70853;50.074;10.224;2024-02-28T03:41:37;15.00;;;13.48;;
81398;SDS011;70853;50.074;10.224;2024-02-28T03:44:03;12.32;;;11.10;;
81398;SDS011;70853;50.074;10.224;2024-02-28T03:46:29;20.13;;;18.10;;
81398;SDS011;70853;50.074;10.224;2024-02-28T03:48:55;13.32;;;11.23;;
81398;SDS011;70853;50.074;10.224;2024-02-28T03:51:20;13.40;;;11.80;;
81398;SDS011;70853;50.074;10.224;2024-02-28T03:53:46;16.30;;;10.63;;
81398;SDS011;70853;50.074;10.224;2024-02-28T03:56:11;12.65;;;9.65;;
81398;SDS011;70853;50.074;10.224;2024-02-28T03:58:37;17.60;;;11.48;;
81398;SDS011;70853;50.074;10.224;2024-02-28T04:01:02;12.55;;;11.18;;
81398;SDS011;70853;50.074;10.224;2024-02-28T04:03:28;28.10;;;25.83;;
81398;SDS011;70853;50.074;10.224;2024-02-28T04:05:54;14.63;;;12.52;;
81398;SDS011;70853;50.074;10.224;2024-02-28T04:08:19;12.68;;;10.43;;
81398;SDS011;70853;50.074;10.224;2024-02-28T04:10:45;11.20;;;9.35;;
81398;SDS011;70853;50.074;10.224;2024-02-28T04:13:11;13.05;;;10.52;;
81398;SDS011;70853;50.074;10.224;2024-02-28T04:15:36;14.70;;;12.80;;
81398;SDS011;70853;50.074;10.224;2024-02-28T04:18:03;14.10;;;12.70;;
81398;SDS011;70853;50.074;10.224;2024-02-28T04:20:29;13.48;;;12.15;;
81398;SDS011;70853;50.074;10.224;2024-02-28T04:22:54;14.30;;;12.82;;
81398;SDS011;70853;50.074;10.224;2024-02-28T04:25:20;14.45;;;13.13;;
81398;SDS011;70853;50.074;10.224;2024-02-28T04:27:45;12.73;;;10.95;;
81398;SDS011;70853;50.074;10.224;2024-02-28T04:30:12;12.40;;;11.00;;
81398;SDS011;70853;50.074;10.224;2024-02-28T04:32:37;11.32;;;10.23;;
81398;SDS011;70853;50.074;10.224;2024-02-28T04:35:03;11.50;;;9.98;;
81398;SDS011;70853;50.074;10.224;2024-02-28T04:37:29;11.55;;;8.75;;
81398;SDS011;70853;50.074;10.224;2024-02-28T04:39:54;12.48;;;11.25;;
81398;SDS011;70853;50.074;10.224;2024-02-28T04:42:19;13.57;;;12.18;;
81398;SDS011;70853;50.074;10.224;2024-02-28T04:44:45;14.23;;;10.55;;
81398;SDS011;70853;50.074;10.224;2024-02-28T04:47:10;16.13;;;14.07;;
81398;SDS011;70853;50.074;10.224;2024-02-28T04:49:36;11.57;;;9.43;;
81398;SDS011;70853;50.074;10.224;2024-02-28T04:52:03;10.15;;;9.13;;
81398;SDS011;70853;50.074;10.224;2024-02-28T04:54:29;12.27;;;8.95;;
81398;SDS011;70853;50.074;10.224;2024-02-28T04:56:54;10.20;;;7.93;;
81398;SDS011;70853;50.074;10.224;2024-02-28T04:59:19;9.73;;;7.95;;
81398;SDS011;70853;50.074;10.224;2024-02-28T05:01:45;11.70;;;10.57;;
81398;SDS011;70853;50.074;10.224;2024-02-28T05:04:11;14.13;;;11.27;;
81398;SDS011;70853;50.074;10.224;2024-02-28T05:06:36;16.85;;;15.35;;
81398;SDS011;70853;50.074;10.224;2024-02-28T05:09:02;12.43;;;10.65;;
81398;SDS011;70853;50.074;10.224;2024-02-28T05:11:27;11.27;;;9.50;;
81398;SDS011;70853;50.074;10.224;2024-02-28T05:13:53;13.98;;;12.65;;
81398;SDS011;70853;50.074;10.224;2024-02-28T05:16:18;10.18;;;9.15;;
81398;SDS011;70853;50.074;10.224;2024-02-28T05:18:44;13.60;;;12.23;;
81398;SDS011;70853;50.074;10.224;2024-02-28T05:21:11;16.20;;;14.68;;
81398;SDS011;70853;50.074;10.224;2024-02-28T05:23:36;11.02;;;8.32;;
81398;SDS011;70853;50.074;10.224;2024-02-28T05:26:02;14.38;;;13.07;;
81398;SDS011;70853;50.074;10.224;2024-02-28T05:28:31;11.52;;;9.77;;
81398;SDS011;70853;50.074;10.224;2024-02-28T05:30:58;12.38;;;11.25;;
81398;SDS011;70853;50.074;10.224;2024-02-28T05:33:24;9.38;;;7.10;;
81398;SDS011;70853;50.074;10.224;2024-02-28T05:35:50;10.57;;;8.25;;
81398;SDS011;70853;50.074;10.224;2024-02-28T05:38:15;11.57;;;10.23;;
81398;SDS011;70853;50.074;10.224;2024-02-28T05:40:41;12.50;;;9.88;;
81398;SDS011;70853;50.074;10.224;2024-02-28T05:43:06;10.93;;;9.48;;
81398;SDS011;70853;50.074;10.224;2024-02-28T05:45:32;11.32;;;9.65;;
81398;SDS011;70853;50.074;10.224;2024-02-28T05:47:57;10.18;;;8.38;;
81398;SDS011;70853;50.074;10.224;2024-02-28T05:50:23;11.18;;;9.48;;
81398;SDS011;70853;50.074;10.224;2024-02-28T05:52:48;11.07;;;8.25;;
81398;SDS011;70853;50.074;10.224;2024-02-28T05:55:14;10.05;;;7.95;;
81398;SDS011;70853;50.074;10.224;2024-02-28T05:57:39;11.90;;;9.15;;
81398;SDS011;70853;50.074;10.224;2024-02-28T06:00:05;9.35;;;6.70;;
81398;SDS011;70853;50.074;10.224;2024-02-28T06:02:36;13.02;;;11.60;;
81398;SDS011;70853;50.074;10.224;2024-02-28T06:05:03;14.10;;;12.90;;
81398;SDS011;70853;50.074;10.224;2024-02-28T06:07:28;14.18;;;11.63;;
81398;SDS011;70853;50.074;10.224;2024-02-28T06:09:54;11.07;;;9.95;;
81398;SDS011;70853;50.074;10.224;2024-02-28T06:12:19;12.57;;;11.30;;
81398;SDS011;70853;50.074;10.224;2024-02-28T06:14:45;11.73;;;9.60;;
81398;SDS011;70853;50.074;10.224;2024-02-28T06:17:10;12.13;;;10.60;;
81398;SDS011;70853;50.074;10.224;2024-02-28T06:19:36;9.88;;;8.88;;
81398;SDS011;70853;50.074;10.224;2024-02-28T06:22:01;12.00;;;10.88;;
81398;SDS011;70853;50.074;10.224;2024-02-28T06:24:26;12.02;;;10.82;;
81398;SDS011;70853;50.074;10.224;2024-02-28T06:26:52;13.48;;;12.00;;
81398;SDS011;70853;50.074;10.224;2024-02-28T06:29:17;11.90;;;9.70;;
81398;SDS011;70853;50.074;10.224;2024-02-28T06:31:43;10.32;;;9.32;;
81398;SDS011;70853;50.074;10.224;2024-02-28T06:34:08;13.10;;;11.90;;
81398;SDS011;70853;50.074;10.224;2024-02-28T06:36:34;10.95;;;9.85;;
81398;SDS011;70853;50.074;10.224;2024-02-28T06:38:59;10.82;;;9.73;;
81398;SDS011;70853;50.074;10.224;2024-02-28T06:41:25;11.32;;;10.15;;
81398;SDS011;70853;50.074;10.224;2024-02-28T06:43:50;13.50;;;12.20;;
81398;SDS011;70853;50.074;10.224;2024-02-28T06:46:15;11.30;;;10.20;;
81398;SDS011;70853;50.074;10.224;2024-02-28T06:48:41;13.52;;;12.27;;
81398;SDS011;70853;50.074;10.224;2024-02-28T06:51:07;9.52;;;7.13;;
81398;SDS011;70853;50.074;10.224;2024-02-28T06:53:32;11.35;;;10.15;;
81398;SDS011;70853;50.074;10.224;2024-02-28T06:55:58;11.30;;;10.20;;
81398;SDS011;70853;50.074;10.224;2024-02-28T06:58:23;18.20;;;16.65;;
81398;SDS011;70853;50.074;10.224;2024-02-28T07:00:50;12.25;;;10.88;;
81398;SDS011;70853;50.074;10.224;2024-02-28T07:03:16;9.50;;;8.60;;
81398;SDS011;70853;50.074;10.224;2024-02-28T07:05:42;13.48;;;12.05;;
81398;SDS011;70853;50.074;10.224;2024-02-28T07:08:07;13.43;;;12.13;;
81398;SDS011;70853;50.074;10.224;2024-02-28T07:10:35;11.38;;;10.18;;
81398;SDS011;70853;50.074;10.224;2024-02-28T07:13:01;12.32;;;11.20;;
81398;SDS011;70853;50.074;10.224;2024-02-28T07:15:27;14.27;;;13.05;;
81398;SDS011;70853;50.074;10.224;2024-02-28T07:17:52;11.63;;;10.63;;
81398;SDS011;70853;50.074;10.224;2024-02-28T07:20:18;12.07;;;11.05;;
81398;SDS011;70853;50.074;10.224;2024-02-28T07:22:44;13.00;;;11.70;;
81398;SDS011;70853;50.074;10.224;2024-02-28T07:25:09;15.32;;;13.95;;
81398;SDS011;70853;50.074;10.224;2024-02-28T07:27:35;16.15;;;14.75;;
81398;SDS011;70853;50.074;10.224;2024-02-28T07:30:01;16.85;;;15.15;;
81398;SDS011;70853;50.074;10.224;2024-02-28T07:32:28;17.05;;;15.70;;
81398;SDS011;70853;50.074;10.224;2024-02-28T07:34:53;14.75;;;13.38;;
81398;SDS011;70853;50.074;10.224;2024-02-28T07:37:19;17.58;;;16.13;;
81398;SDS011;70853;50.074;10.224;2024-02-28T07:39:45;12.48;;;11.30;;
81398;SDS011;70853;50.074;10.224;2024-02-28T07:42:10;14.95;;;13.55;;
81398;SDS011;70853;50.074;10.224;2024-02-28T07:44:35;14.73;;;13.52;;
81398;SDS011;70853;50.074;10.224;2024-02-28T07:47:01;16.27;;;14.88;;
81398;SDS011;70853;50.074;10.224;2024-02-28T07:49:26;15.77;;;14.30;;
81398;SDS011;70853;50.074;10.224;2024-02-28T07:51:52;19.92;;;18.30;;
81398;SDS011;70853;50.074;10.224;2024-02-28T07:54:17;13.65;;;12.55;;
81398;SDS011;70853;50.074;10.224;2024-02-28T07:56:43;11.57;;;10.48;;
81398;SDS011;70853;50.074;10.224;2024-02-28T07:59:09;13.00;;;11.68;;
81398;SDS011;70853;50.074;10.224;2024-02-28T08:01:34;10.05;;;9.15;;
81398;SDS011;70853;50.074;10.224;2024-02-28T08:04:00;14.95;;;13.60;;
81398;SDS011;70853;50.074;10.224;2024-02-28T08:06:27;16.27;;;14.88;;
81398;SDS011;70853;50.074;10.224;2024-02-28T08:08:52;11.30;;;10.27;;
81398;SDS011;70853;50.074;10.224;2024-02-28T08:11:18;10.85;;;9.57;;
81398;SDS011;70853;50.074;10.224;2024-02-28T08:13:44;18.38;;;16.83;;
81398;SDS011;70853;50.074;10.224;2024-02-28T08:16:09;19.60;;;18.13;;
81398;SDS011;70853;50.074;10.224;2024-02-28T08:18:35;17.88;;;16.45;;
81398;SDS011;70853;50.074;10.224;2024-02-28T08:21:01;17.02;;;15.65;;
81398;SDS011;70853;50.074;10.224;2024-02-28T08:23:28;12.25;;;11.13;;
81398;SDS011;70853;50.074;10.224;2024-02-28T08:25:54;11.07;;;10.07;;
81398;SDS011;70853;50.074;10.224;2024-02-28T08:28:20;12.50;;;11.35;;
81398;SDS011;70853;50.074;10.224;2024-02-28T08:30:45;11.85;;;10.82;;
81398;SDS011;70853;50.074;10.224;2024-02-28T08:33:11;16.83;;;15.40;;
81398;SDS011;70853;50.074;10.224;2024-02-28T08:35:36;10.93;;;9.80;;
81398;SDS011;70853;50.074;10.224;2024-02-28T08:38:02;12.73;;;11.40;;
81398;SDS011;70853;50.074;10.224;2024-02-28T08:40:28;12.65;;;11.50;;
81398;SDS011;70853;50.074;10.224;2024-02-28T08:45:24;12.82;;;11.73;;
81398;SDS011;70853;50.074;10.224;2024-02-28T08:47:50;10.63;;;8.40;;
81398;SDS011;70853;50.074;10.224;2024-02-28T08:50:15;15.43;;;14.27;;
81398;SDS011;70853;50.074;10.224;2024-02-28T08:52:41;18.77;;;17.20;;
81398;SDS011;70853;50.074;10.224;2024-02-28T08:55:07;18.98;;;17.45;;
81398;SDS011;70853;50.074;10.224;2024-02-28T08:57:32;11.50;;;10.45;;
81398;SDS011;70853;50.074;10.224;2024-02-28T08:59:59;11.95;;;10.90;;
81398;SDS011;70853;50.074;10.224;2024-02-28T09:02:24;11.52;;;7.88;;
81398;SDS011;70853;50.074;10.224;2024-02-28T09:04:50;10.02;;;9.13;;
81398;SDS011;70853;50.074;10.224;2024-02-28T09:07:18;10.02;;;7.65;;
81398;SDS011;70853;50.074;10.224;2024-02-28T09:09:46;10.65;;;9.65;;
81398;SDS011;70853;50.074;10.224;2024-02-28T09:12:12;9.18;;;8.27;;
81398;SDS011;70853;50.074;10.224;2024-02-28T09:14:38;14.05;;;13.05;;
81398;SDS011;70853;50.074;10.224;2024-02-28T09:17:04;11.38;;;10.43;;
81398;SDS011;70853;50.074;10.224;2024-02-28T09:19:30;8.68;;;7.10;;
81398;SDS011;70853;50.074;10.224;2024-02-28T09:21:56;7.72;;;7.03;;
81398;SDS011;70853;50.074;10.224;2024-02-28T09:24:22;8.80;;;7.90;;
81398;SDS011;70853;50.074;10.224;2024-02-28T09:26:51;9.90;;;8.43;;
81398;SDS011;70853;50.074;10.224;2024-02-28T09:29:16;7.35;;;6.47;;
81398;SDS011;70853;50.074;10.224;2024-02-28T09:31:42;17.02;;;12.45;;
81398;SDS011;70853;50.074;10.224;2024-02-28T09:34:07;12.73;;;11.68;;
81398;SDS011;70853;50.074;10.224;2024-02-28T09:36:41;10.32;;;9.43;;
81398;SDS011;70853;50.074;10.224;2024-02-28T09:39:13;10.93;;;9.93;;
81398;SDS011;70853;50.074;10.224;2024-02-28T09:41:42;8.25;;;7.47;;
81398;SDS011;70853;50.074;10.224;2024-02-28T09:44:08;10.13;;;9.13;;
81398;SDS011;70853;50.074;10.224;2024-02-28T09:46:34;11.07;;;10.05;;
81398;SDS011;70853;50.074;10.224;2024-02-28T09:49:04;11.60;;;10.55;;
81398;SDS011;70853;50.074;10.224;2024-02-28T09:51:33;44.90;;;12.80;;
81398;SDS011;70853;50.074;10.224;2024-02-28T09:54:03;15.82;;;14.30;;
81398;SDS011;70853;50.074;10.224;2024-02-28T09:56:33;17.45;;;16.02;;
81398;SDS011;70853;50.074;10.224;2024-02-28T09:58:59;10.98;;;9.93;;
81398;SDS011;70853;50.074;10.224;2024-02-28T10:01:28;15.88;;;14.45;;
81398;SDS011;70853;50.074;10.224;2024-02-28T10:03:54;12.32;;;11.32;;
81398;SDS011;70853;50.074;10.224;2024-02-28T10:06:21;10.13;;;9.23;;
81398;SDS011;70853;50.074;10.224;2024-02-28T10:08:47;8.82;;;7.95;;
81398;SDS011;70853;50.074;10.224;2024-02-28T10:11:23;9.05;;;7.40;;
81398;SDS011;70853;50.074;10.224;2024-02-28T10:13:49;11.10;;;10.07;;
81398;SDS011;70853;50.074;10.224;2024-02-28T10:16:15;11.18;;;8.70;;
81398;SDS011;70853;50.074;10.224;2024-02-28T10:18:44;8.45;;;7.55;;
81398;SDS011;70853;50.074;10.224;2024-02-28T10:21:10;15.30;;;13.25;;
81398;SDS011;70853;50.074;10.224;2024-02-28T10:23:40;9.07;;;7.28;;
81398;SDS011;70853;50.074;10.224;2024-02-28T10:26:08;8.43;;;7.53;;
81398;SDS011;70853;50.074;10.224;2024-02-28T10:28:38;9.50;;;8.52;;
81398;SDS011;70853;50.074;10.224;2024-02-28T10:31:05;11.77;;;10.75;;
81398;SDS011;70853;50.074;10.224;2024-02-28T10:33:33;8.63;;;7.72;;
81398;SDS011;70853;50.074;10.224;2024-02-28T10:36:01;16.95;;;8.88;;
81398;SDS011;70853;50.074;10.224;2024-02-28T10:38:28;11.77;;;10.45;;
81398;SDS011;70853;50.074;10.224;2024-02-28T10:40:53;25.35;;;12.65;;
81398;SDS011;70853;50.074;10.224;2024-02-28T10:43:19;14.00;;;12.60;;
81398;SDS011;70853;50.074;10.224;2024-02-28T10:45:45;9.93;;;9.13;;
81398;SDS011;70853;50.074;10.224;2024-02-28T10:48:13;12.43;;;11.40;;
81398;SDS011;70853;50.074;10.224;2024-02-28T10:50:40;12.48;;;11.52;;
81398;SDS011;70853;50.074;10.224;2024-02-28T10:53:11;15.10;;;11.32;;
81398;SDS011;70853;50.074;10.224;2024-02-28T10:55:39;9.88;;;8.98;;
81398;SDS011;70853;50.074;10.224;2024-02-28T10:58:09;11.45;;;10.18;;
81398;SDS011;70853;50.074;10.224;2024-02-28T11:00:39;9.75;;;8.82;;
81398;SDS011;70853;50.074;10.224;2024-02-28T11:03:14;11.15;;;10.10;;
81398;SDS011;70853;50.074;10.224;2024-02-28T11:05:42;9.88;;;8.82;;
81398;SDS011;70853;50.074;10.224;2024-02-28T11:08:11;9.63;;;7.40;;
81398;SDS011;70853;50.074;10.224;2024-02-28T11:10:47;12.00;;;10.23;;
81398;SDS011;70853;50.074;10.224;2024-02-28T11:13:25;12.85;;;11.70;;
81398;SDS011;70853;50.074;10.224;2024-02-28T11:15:52;10.57;;;7.18;;
81398;SDS011;70853;50.074;10.224;2024-02-28T11:18:20;9.48;;;7.78;;
81398;SDS011;70853;50.074;10.224;2024-02-28T11:20:46;12.15;;;11.07;;
81398;SDS011;70853;50.074;10.224;2024-02-28T11:23:14;11.05;;;10.05;;
81398;SDS011;70853;50.074;10.224;2024-02-28T11:25:40;9.85;;;8.88;;
81398;SDS011;70853;50.074;10.224;2024-02-28T11:28:06;10.40;;;9.40;;
81398;SDS011;70853;50.074;10.224;2024-02-28T11:30:32;9.98;;;9.00;;
81398;SDS011;70853;50.074;10.224;2024-02-28T11:32:58;9.27;;;8.35;;
81398;SDS011;70853;50.074;10.224;2024-02-28T11:35:27;10.10;;;7.70;;
81398;SDS011;70853;50.074;10.224;2024-02-28T11:37:56;13.75;;;9.82;;
81398;SDS011;70853;50.074;10.224;2024-02-28T11:40:25;9.45;;;6.47;;
81398;SDS011;70853;50.074;10.224;2024-02-28T11:42:54;11.07;;;10.13;;
81398;SDS011;70853;50.074;10.224;2024-02-28T11:45:20;10.15;;;9.18;;
81398;SDS011;70853;50.074;10.224;2024-02-28T11:47:46;8.07;;;6.90;;
81398;SDS011;70853;50.074;10.224;2024-02-28T11:50:12;8.18;;;7.38;;
81398;SDS011;70853;50.074;10.224;2024-02-28T11:52:38;8.73;;;7.30;;
81398;SDS011;70853;50.074;10.224;2024-02-28T11:55:04;9.52;;;8.63;;
81398;SDS011;70853;50.074;10.224;2024-02-28T11:57:30;11.30;;;8.93;;
81398;SDS011;70853;50.074;10.224;2024-02-28T12:00:07;8.48;;;7.45;;
81398;SDS011;70853;50.074;10.224;2024-02-28T12:02:39;9.90;;;8.45;;
81398;SDS011;70853;50.074;10.224;2024-02-28T12:05:05;11.80;;;10.73;;
81398;SDS011;70853;50.074;10.224;2024-02-28T12:07:31;13.05;;;11.85;;
81398;SDS011;70853;50.074;10.224;2024-02-28T12:09:57;11.68;;;10.48;;
81398;SDS011;70853;50.074;10.224;2024-02-28T12:12:23;8.30;;;7.47;;
81398;SDS011;70853;50.074;10.224;2024-02-28T12:14:50;10.95;;;9.77;;
81398;SDS011;70853;50.074;10.224;2024-02-28T12:17:15;8.73;;;7.93;;
81398;SDS011;70853;50.074;10.224;2024-02-28T12:19:41;7.18;;;5.93;;
81398;SDS011;70853;50.074;10.224;2024-02-28T12:22:07;7.57;;;6.80;;
81398;SDS011;70853;50.074;10.224;2024-02-28T12:24:33;9.27;;;8.38;;
81398;SDS011;70853;50.074;10.224;2024-02-28T12:26:58;9.15;;;7.65;;
81398;SDS011;70853;50.074;10.224;2024-02-28T12:29:23;7.18;;;6.47;;
81398;SDS011;70853;50.074;10.224;2024-02-28T12:31:49;9.77;;;8.90;;
81398;SDS011;70853;50.074;10.224;2024-02-28T12:34:14;9.38;;;8.68;;
81398;SDS011;70853;50.074;10.224;2024-02-28T12:36:40;8.43;;;7.63;;
81398;SDS011;70853;50.074;10.224;2024-02-28T12:39:07;13.18;;;12.10;;
81398;SDS011;70853;50.074;10.224;2024-02-28T12:41:36;11.93;;;6.78;;
81398;SDS011;70853;50.074;10.224;2024-02-28T12:44:04;9.68;;;8.88;;
81398;SDS011;70853;50.074;10.224;2024-02-28T12:46:34;11.10;;;10.23;;
81398;SDS011;70853;50.074;10.224;2024-02-28T12:48:59;14.82;;;13.45;;
81398;SDS011;70853;50.074;10.224;2024-02-28T12:54:07;7.82;;;7.13;;
81398;SDS011;70853;50.074;10.224;2024-02-28T12:56:34;11.75;;;10.82;;
81398;SDS011;70853;50.074;10.224;2024-02-28T12:59:00;10.88;;;9.85;;
81398;SDS011;70853;50.074;10.224;2024-02-28T13:01:26;8.32;;;6.88;;
81398;SDS011;70853;50.074;10.224;2024-02-28T13:03:53;10.63;;;9.70;;
81398;SDS011;70853;50.074;10.224;2024-02-28T13:06:19;8.73;;;8.05;;
81398;SDS011;70853;50.074;10.224;2024-02-28T13:08:44;9.70;;;8.90;;
81398;SDS011;70853;50.074;10.224;2024-02-28T13:11:11;8.88;;;8.18;;
81398;SDS011;70853;50.074;10.224;2024-02-28T13:13:37;7.20;;;6.60;;
81398;SDS011;70853;50.074;10.224;2024-02-28T13:16:02;7.90;;;7.22;;
81398;SDS011;70853;50.074;10.224;2024-02-28T13:18:28;7.30;;;6.70;;
81398;SDS011;70853;50.074;10.224;2024-02-28T13:20:53;9.73;;;8.88;;
81398;SDS011;70853;50.074;10.224;2024-02-28T13:23:19;10.15;;;9.45;;
81398;SDS011;70853;50.074;10.224;2024-02-28T13:25:44;7.95;;;7.22;;
81398;SDS011;70853;50.074;10.224;2024-02-28T13:28:10;8.88;;;8.15;;
81398;SDS011;70853;50.074;10.224;2024-02-28T13:30:35;8.13;;;7.45;;
81398;SDS011;70853;50.074;10.224;2024-02-28T13:33:04;8.57;;;7.88;;
81398;SDS011;70853;50.074;10.224;2024-02-28T13:35:30;8.30;;;7.60;;
81398;SDS011;70853;50.074;10.224;2024-02-28T13:37:56;7.70;;;6.95;;
81398;SDS011;70853;50.074;10.224;2024-02-28T13:40:25;4.43;;;4.03;;
81398;SDS011;70853;50.074;10.224;2024-02-28T13:42:52;6.55;;;5.95;;
81398;SDS011;70853;50.074;10.224;2024-02-28T13:45:17;12.15;;;8.45;;
81398;SDS011;70853;50.074;10.224;2024-02-28T13:47:43;8.10;;;7.40;;
81398;SDS011;70853;50.074;10.224;2024-02-28T13:50:08;7.47;;;6.88;;
81398;SDS011;70853;50.074;10.224;2024-02-28T13:52:35;10.60;;;9.90;;
81398;SDS011;70853;50.074;10.224;2024-02-28T13:55:00;9.77;;;9.02;;
81398;SDS011;70853;50.074;10.224;2024-02-28T13:57:26;9.38;;;8.60;;
81398;SDS011;70853;50.074;10.224;2024-02-28T13:59:51;5.90;;;5.35;;
81398;SDS011;70853;50.074;10.224;2024-02-28T14:02:20;7.35;;;6.65;;
81398;SDS011;70853;50.074;10.224;2024-02-28T14:04:47;14.45;;;13.40;;
81398;SDS011;70853;50.074;10.224;2024-02-28T14:07:14;8.30;;;7.70;;
81398;SDS011;70853;50.074;10.224;2024-02-28T14:09:41;9.25;;;8.52;;
81398;SDS011;70853;50.074;10.224;2024-02-28T14:12:08;8.00;;;7.40;;
81398;SDS011;70853;50.074;10.224;2024-02-28T14:14:34;9.93;;;9.15;;
81398;SDS011;70853;50.074;10.224;2024-02-28T14:17:00;8.73;;;7.90;;